WEATHER DATA

YESTERDAY
Time Temp. Dewp. Hum. Bar.
00:01 12 10.2 89 1016.9
00:11 12.1 10.2 88 1016.8
00:22 12.2 10.3 88 1016.8
00:32 12.1 10.2 88 1016.7
00:41 12.1 10.2 88 1016.8
00:51 12.1 10.2 88 1016.7
01:02 12.1 10.2 88 1016.8
01:12 12.1 10.2 88 1016.7
01:22 12.1 10 87 1016.4
01:32 12.1 10 87 1016.6
01:42 12 9.9 87 1016.4
01:52 12 9.9 87 1016.3
02:02 12 9.9 87 1016.2
02:13 12 9.9 87 1016.1
02:23 12 9.9 87 1016.1
02:33 11.9 9.6 86 1016.1
02:43 12 9.9 87 1016
02:53 12 9.9 87 1016
03:03 12 9.9 87 1015.9
03:13 12 9.9 87 1015.8
03:24 11.9 9.8 87 1015.7
03:34 11.9 9.8 87 1015.8
03:44 11.8 9.7 87 1015.4
03:54 11.7 9.6 87 1015.8
04:04 11.7 9.8 88 1015.7
04:14 11.7 9.8 88 1015.7
04:24 11.5 9.4 87 1015.6
04:34 11.3 9.2 87 1015.6
04:45 11.1 9 87 1015.7
04:55 11 8.9 87 1015.6
05:05 10.8 8.9 88 1015.5
05:15 10.8 8.9 88 1015.6
05:25 10.8 8.9 88 1015.6
05:35 10.8 8.9 88 1015.5
05:45 10.9 9 88 1015.7
05:56 11.1 9.4 89 1015.5
06:06 11.4 9.7 89 1015.5
06:15 11.6 9.9 89 1015.7
06:26 12 10.1 88 1015.8
06:36 12.2 10.1 87 1015.6
06:46 12.4 10 85 1015.8
06:56 12.7 10.1 84 1015.8
07:07 12.9 10.1 83 1015.8
07:17 13.1 10.3 83 1015.8
07:26 13.4 10.4 82 1015.9
07:36 13.8 10.4 80 1015.9
07:47 14.3 10.5 78 1016
07:57 14.7 10.7 77 1016.1
08:07 15.2 10.8 75 1016
08:17 15.7 11.3 75 1015.8
08:27 16.1 11.3 73 1015.8
08:37 16.3 11.2 72 1015.7
08:47 16.2 10.9 71 1015.8
08:58 16.1 11.1 72 1015.9
09:08 16.2 10.9 71 1015.6
09:18 16.5 11 70 1015.6
09:27 16.8 11.3 70 1016
09:38 17.3 11.6 69 1015.9
09:48 18.5 12.3 67 1015.7
09:58 18.8 11.9 64 1015.7
10:08 18.9 12.9 68 1015.7
10:18 19.2 12.5 65 1015.4
10:28 19.6 12.8 65 1015.1
10:38 20.1 13.1 64 1015.1
10:49 20.5 12.2 59 1015.3
10:58 20.7 12.9 61 1015.2
11:08 20.7 12.9 61 1015
11:19 20.4 12.9 62 1015.1
11:29 20 11.8 59 1014.7
11:38 19.9 12.4 62 1014.6
11:48 20.6 12.8 61 1014.6
11:59 21.6 13.8 61 1014.5
12:09 22.2 13.6 58 1014.5
12:18 23 13.8 56 1014.5
12:29 23.6 14 55 1014.4
12:39 24.2 13.7 52 1014.4
12:49 24.5 13.7 51 1014.4
12:59 24.4 13.9 52 1014.2
13:09 24.9 13.8 50 1014.3
13:19 24.9 14.1 51 1014.2
13:29 25.2 13.4 48 1014.1
13:39 25.3 14.1 50 1014
13:49 25.7 14.8 51 1014
13:59 26.3 14.1 47 1014
14:09 26.1 13.9 47 1013.8
14:19 25 13.9 50 1013.8
14:29 24.2 13.4 51 1013.8
14:39 24 13.5 52 1013.8
14:50 24.1 12.7 49 1013.8
14:59 23.6 12.9 51 1013.7
15:09 23.2 13.1 53 1013.7
15:20 23.5 12.8 51 1013.7
15:29 24.1 12.4 48 1013.4
15:39 24.2 12.8 49 1013.5
15:49 24.9 13.5 49 1013.4
16:00 25.6 14.4 50 1013.3
16:09 26.2 14.3 48 1013.1
16:19 26.5 13.9 46 1013.1
16:30 26.6 14 46 1013
16:49 27 13.7 44 1012.8
16:59 26.9 13.6 44 1012.9
17:20 26.5 12.9 43 1012.8
17:29 26.5 13.3 44 1012.7
17:40 26.5 13.9 46 1012.6
17:50 26.3 14.4 48 1012.7
18:00 26.1 15.2 51 1012.6
18:10 25.8 14.9 51 1012.6
18:20 25.5 14.9 52 1012.5
18:30 25.1 15.1 54 1012.6
18:39 24.7 15.1 55 1012.7
18:50 24.3 15 56 1012.7
19:00 23.9 14.6 56 1012.7
19:10 23.2 14.2 57 1012.6
19:20 22.8 14.4 59 1012.6
19:30 22.4 14.3 60 1012.7
19:40 21.9 14 61 1012.7
19:50 21.5 13.9 62 1012.7
20:00 21.1 13.8 63 1012.6
20:10 20.7 13.9 65 1012.5
20:20 20.3 13.5 65 1012.5
20:30 19.8 13.5 67 1012.6
20:40 19.3 13.3 68 1012.6
20:50 18.9 13.1 69 1012.6
21:00 18.4 12.8 70 1012.6
21:10 18.1 12.8 71 1012.6
21:20 17.8 12.5 71 1012.7
21:30 17.5 12.4 72 1012.7
21:41 17 12.1 73 1012.9
21:50 16.6 12 74 1013
21:59 16.4 11.8 74 1012.9
22:10 16.2 11.8 75 1013
22:21 15.9 11.5 75 1013
22:30 15.6 11.4 76 1013.3
22:40 15.3 11.3 77 1013.1
22:51 15.3 11.5 78 1013.1
23:01 15.1 11.1 77 1013.2
23:20 14.8 11.2 79 1013.3
23:31 14.6 11 79 1013.2
23:41 14.4 10.8 79 1013.2
23:50 14.1 10.7 80 1013

DAY STATISTIC

2019-07-16
TEMPERATURE
AVERAGE
18.0
HIGH
27.0
16:49
LOW
10.8
05:05
PRESSURE
AVERAGE
1014.5
HIGH
1016.9
00:01
LOW
1012.5
18:20
DEWPOINT
AVERAGE
11.9
HIGH
15.2
18:00
LOW
8.9
04:55
HUMIDITY
AVERAGE
70
HIGH
89
00:01
LOW
43
17:20
TEMPERATURE (°C)
LOW
10.8
HIGH
27.0
AVERAGE
18.0
PRESSURE (hpa)
LOW
1012.5
HIGH
1016.9
AVERAGE
1014.5
DEVICE